createdAt,value
2019-03-16T00:00:45.714Z,995.15
2019-03-16T00:01:56.496Z,995.11
2019-03-16T00:02:46.716Z,995.12
2019-03-16T00:03:45.693Z,995.25
2019-03-16T00:04:45.677Z,995.15
2019-03-16T00:05:45.658Z,995.15
2019-03-16T00:06:45.651Z,995.18
2019-03-16T00:07:45.636Z,995.19
2019-03-16T00:08:45.638Z,995.24
2019-03-16T00:09:45.621Z,995.13
2019-03-16T00:10:45.602Z,995.21
2019-03-16T00:11:45.739Z,995.32
2019-03-16T00:12:45.599Z,995.23
2019-03-16T00:13:45.627Z,995.23
2019-03-16T00:14:45.559Z,995.26
2019-03-16T00:15:45.554Z,995.12
2019-03-16T00:16:45.539Z,995.27
2019-03-16T00:17:45.527Z,995.34
2019-03-16T00:18:45.518Z,995.27
2019-03-16T00:19:45.517Z,995.29
2019-03-16T00:20:45.496Z,995.32
2019-03-16T00:21:45.488Z,995.35
2019-03-16T00:22:45.470Z,995.39
2019-03-16T00:23:45.466Z,995.34
2019-03-16T00:24:45.460Z,995.31
2019-03-16T00:25:45.450Z,995.34
2019-03-16T00:26:45.427Z,995.38
2019-03-16T00:27:45.418Z,995.39
2019-03-16T00:28:45.420Z,995.42
2019-03-16T00:29:45.393Z,995.42
2019-03-16T00:30:45.400Z,995.44
2019-03-16T00:31:45.374Z,995.56
2019-03-16T00:32:45.359Z,995.55
2019-03-16T00:33:45.359Z,995.46
2019-03-16T00:34:45.358Z,995.51
2019-03-16T00:35:45.339Z,995.43
2019-03-16T00:36:45.329Z,995.55
2019-03-16T00:37:45.318Z,995.44
2019-03-16T00:38:45.296Z,995.65
2019-03-16T00:39:45.296Z,995.46
2019-03-16T00:40:45.293Z,995.61
2019-03-16T00:41:45.262Z,995.54
2019-03-16T00:42:45.288Z,995.42
2019-03-16T00:43:45.239Z,995.57
2019-03-16T00:44:45.228Z,995.43
2019-03-16T00:45:45.243Z,995.54
2019-03-16T00:46:45.210Z,995.61
2019-03-16T00:47:45.202Z,995.56
2019-03-16T00:48:45.204Z,995.70
2019-03-16T00:49:45.179Z,995.60
2019-03-16T00:50:45.160Z,995.47
2019-03-16T00:51:45.165Z,995.64
2019-03-16T00:52:45.138Z,995.65
2019-03-16T00:53:45.134Z,995.78
2019-03-16T00:54:45.130Z,995.75
2019-03-16T00:55:45.120Z,995.60
2019-03-16T00:56:45.117Z,995.75
2019-03-16T00:57:45.094Z,995.75
2019-03-16T00:58:45.073Z,995.76
2019-03-16T00:59:45.099Z,995.78
2019-03-16T01:00:45.057Z,995.76
2019-03-16T01:01:45.038Z,995.82
2019-03-16T01:02:45.034Z,995.91
2019-03-16T01:03:45.021Z,995.86
2019-03-16T01:04:45.005Z,995.81
2019-03-16T01:05:45.013Z,995.80
2019-03-16T01:06:45.003Z,995.79
2019-03-16T01:07:44.972Z,995.81
2019-03-16T01:08:44.963Z,995.90
2019-03-16T01:09:44.953Z,995.88
2019-03-16T01:10:44.946Z,995.86
2019-03-16T01:11:44.969Z,995.85
2019-03-16T01:12:44.923Z,995.84
2019-03-16T01:13:44.915Z,995.92
2019-03-16T01:14:44.899Z,995.97
2019-03-16T01:15:44.893Z,995.92
2019-03-16T01:16:44.873Z,995.97
2019-03-16T01:17:44.875Z,996.03
2019-03-16T01:18:44.856Z,995.90
2019-03-16T01:19:44.845Z,996.02
2019-03-16T01:20:44.842Z,996.00
2019-03-16T01:21:44.846Z,996.09
2019-03-16T01:22:44.809Z,995.98
2019-03-16T01:23:44.803Z,995.99
2019-03-16T01:24:44.790Z,996.00
2019-03-16T01:25:44.775Z,996.06
2019-03-16T01:26:44.764Z,996.08
2019-03-16T01:27:44.763Z,995.99
2019-03-16T01:28:44.763Z,996.05
2019-03-16T01:29:44.743Z,996.04
2019-03-16T01:30:44.722Z,996.01
2019-03-16T01:31:44.709Z,996.06
2019-03-16T01:32:44.732Z,996.05
2019-03-16T01:33:44.685Z,996.08
2019-03-16T01:34:44.688Z,996.17
2019-03-16T01:35:44.669Z,996.03
2019-03-16T01:36:44.673Z,996.16
2019-03-16T01:37:44.664Z,996.12
2019-03-16T01:38:44.644Z,996.16
2019-03-16T01:39:44.630Z,996.07
2019-03-16T01:40:44.608Z,996.15
2019-03-16T01:41:44.598Z,996.15
2019-03-16T01:42:44.593Z,996.17
2019-03-16T01:43:44.576Z,996.12
2019-03-16T01:44:44.583Z,996.11
2019-03-16T01:45:44.566Z,996.17
2019-03-16T01:46:44.541Z,996.17
2019-03-16T01:47:44.533Z,996.23
2019-03-16T01:48:44.523Z,996.22
2019-03-16T01:49:44.514Z,996.16
2019-03-16T01:50:44.561Z,996.24
2019-03-16T01:51:44.485Z,996.23
2019-03-16T01:52:44.477Z,996.36
2019-03-16T01:53:44.463Z,996.35
2019-03-16T01:54:44.462Z,996.31
2019-03-16T01:55:44.445Z,996.31
2019-03-16T01:56:44.456Z,996.27
2019-03-16T01:57:44.418Z,996.29
2019-03-16T01:58:44.409Z,996.29
2019-03-16T01:59:44.412Z,996.34
2019-03-16T02:00:44.406Z,996.34
2019-03-16T02:01:44.383Z,996.24
2019-03-16T02:02:54.600Z,996.31
2019-03-16T02:03:45.441Z,996.38
2019-03-16T02:04:44.341Z,996.39
2019-03-16T02:05:44.332Z,996.44
2019-03-16T02:06:44.327Z,996.39
2019-03-16T02:07:44.320Z,996.40
2019-03-16T02:08:44.298Z,996.36
2019-03-16T02:09:44.285Z,996.35
2019-03-16T02:10:44.279Z,996.35
2019-03-16T02:11:44.279Z,996.40
2019-03-16T02:12:44.275Z,996.36
2019-03-16T02:13:44.255Z,996.39
2019-03-16T02:14:44.230Z,996.45
2019-03-16T02:15:44.220Z,996.46
2019-03-16T02:16:44.208Z,996.42
2019-03-16T02:17:44.241Z,996.37
2019-03-16T02:18:44.244Z,996.42
2019-03-16T02:19:44.218Z,996.44
2019-03-16T02:20:44.237Z,996.43
2019-03-16T02:21:44.299Z,996.48
2019-03-16T02:22:44.142Z,996.57
2019-03-16T02:23:44.131Z,996.49
2019-03-16T02:24:44.131Z,996.46
2019-03-16T02:25:44.115Z,996.47
2019-03-16T02:26:44.104Z,996.51
2019-03-16T02:27:44.084Z,996.54
2019-03-16T02:28:44.077Z,996.54
2019-03-16T02:29:44.076Z,996.59
2019-03-16T02:30:44.064Z,996.54
2019-03-16T02:31:44.056Z,996.59
2019-03-16T02:32:44.037Z,996.55
2019-03-16T02:33:44.068Z,996.63
2019-03-16T02:34:44.015Z,996.58
2019-03-16T02:35:44.000Z,996.55
2019-03-16T02:36:43.992Z,996.63
2019-03-16T02:37:43.974Z,996.63
2019-03-16T02:38:43.963Z,996.68
2019-03-16T02:39:43.998Z,996.71
2019-03-16T02:40:44.010Z,996.59
2019-03-16T02:41:43.940Z,996.67
2019-03-16T02:42:43.926Z,996.71
2019-03-16T02:43:43.908Z,996.64
2019-03-16T02:44:43.900Z,996.70
2019-03-16T02:45:43.900Z,996.79
2019-03-16T02:46:43.888Z,996.79
2019-03-16T02:47:43.869Z,996.84
2019-03-16T02:48:43.863Z,996.83
2019-03-16T02:49:43.843Z,996.78
2019-03-16T02:50:43.847Z,996.81
2019-03-16T02:51:43.826Z,996.78
2019-03-16T02:52:43.821Z,996.84
2019-03-16T02:53:43.797Z,996.84
2019-03-16T02:54:43.791Z,996.82
2019-03-16T02:55:43.809Z,996.92
2019-03-16T02:56:43.770Z,996.88
2019-03-16T02:57:43.754Z,996.95
2019-03-16T02:58:43.759Z,996.95
2019-03-16T02:59:43.740Z,996.93
2019-03-16T03:00:43.742Z,997.01
2019-03-16T03:01:43.723Z,997.02
2019-03-16T03:02:43.707Z,997.03
2019-03-16T03:03:43.689Z,996.97
2019-03-16T03:04:45.961Z,996.95
2019-03-16T03:05:43.681Z,997.06
2019-03-16T03:06:43.670Z,997.01
2019-03-16T03:07:43.686Z,997.04
2019-03-16T03:08:43.656Z,996.99
2019-03-16T03:09:43.626Z,997.08
2019-03-16T03:10:43.627Z,996.97
2019-03-16T03:11:43.605Z,997.09
2019-03-16T03:12:43.592Z,997.12
2019-03-16T03:13:43.594Z,997.10
2019-03-16T03:14:43.578Z,997.08
2019-03-16T03:15:43.560Z,997.16
2019-03-16T03:16:43.555Z,997.15
2019-03-16T03:17:43.534Z,997.21
2019-03-16T03:18:43.544Z,997.21
2019-03-16T03:19:43.520Z,997.15
2019-03-16T03:20:43.501Z,997.21
2019-03-16T03:21:43.498Z,997.21
2019-03-16T03:22:43.483Z,997.25
2019-03-16T03:23:43.506Z,997.26
2019-03-16T03:24:44.397Z,997.26
2019-03-16T03:25:43.445Z,997.29
2019-03-16T03:26:43.451Z,997.33
2019-03-16T03:27:43.445Z,997.35
2019-03-16T03:28:43.410Z,997.45
2019-03-16T03:29:43.418Z,997.39
2019-03-16T03:30:43.423Z,997.39
2019-03-16T03:31:43.419Z,997.44
2019-03-16T03:32:43.463Z,997.41
2019-03-16T03:33:59.160Z,997.37
2019-03-16T03:34:44.378Z,997.46
2019-03-16T03:35:43.338Z,997.52
2019-03-16T03:36:43.349Z,997.51
2019-03-16T03:37:43.318Z,997.54
2019-03-16T03:38:43.325Z,997.59
2019-03-16T03:39:43.396Z,997.57
2019-03-16T03:40:43.307Z,997.64
2019-03-16T03:41:43.273Z,997.65
2019-03-16T03:42:43.281Z,997.68
2019-03-16T03:43:43.246Z,997.72
2019-03-16T03:44:43.241Z,997.80
2019-03-16T03:45:43.235Z,997.78
2019-03-16T03:46:43.225Z,997.70
2019-03-16T03:47:43.202Z,997.73
2019-03-16T03:48:43.201Z,997.75
2019-03-16T03:49:43.183Z,997.68
2019-03-16T03:50:43.190Z,997.74
2019-03-16T03:51:43.195Z,997.71
2019-03-16T03:52:43.147Z,997.73
2019-03-16T03:53:43.159Z,997.71
2019-03-16T03:54:43.127Z,997.67
2019-03-16T03:55:43.114Z,997.70
2019-03-16T03:56:43.108Z,997.70
2019-03-16T03:57:43.118Z,997.70
2019-03-16T03:58:43.083Z,997.72
2019-03-16T03:59:43.079Z,997.62
2019-03-16T04:00:43.070Z,997.78
2019-03-16T04:01:43.080Z,997.70
2019-03-16T04:02:43.068Z,997.73
2019-03-16T04:03:43.032Z,997.67
2019-03-16T04:04:43.018Z,997.72
2019-03-16T04:05:43.006Z,997.71
2019-03-16T04:06:43.010Z,997.77
2019-03-16T04:07:42.983Z,997.72
2019-03-16T04:08:42.976Z,997.72
2019-03-16T04:09:42.994Z,997.71
2019-03-16T04:10:42.957Z,997.73
2019-03-16T04:11:42.953Z,997.71
2019-03-16T04:12:42.928Z,997.76
2019-03-16T04:13:42.915Z,997.71
2019-03-16T04:14:42.905Z,997.67
2019-03-16T04:15:42.895Z,997.67
2019-03-16T04:16:42.906Z,997.75
2019-03-16T04:17:42.892Z,997.75
2019-03-16T04:18:42.860Z,997.75
2019-03-16T04:19:42.862Z,997.65
2019-03-16T04:20:42.841Z,997.64
2019-03-16T04:21:42.876Z,997.61
2019-03-16T04:22:42.964Z,997.67
2019-03-16T04:23:42.843Z,997.56
2019-03-16T04:24:45.207Z,997.59
2019-03-16T04:25:42.804Z,997.66
2019-03-16T04:26:42.771Z,997.65
2019-03-16T04:27:42.764Z,997.66
2019-03-16T04:28:42.750Z,997.72
2019-03-16T04:29:42.739Z,997.80
2019-03-16T04:30:42.733Z,997.77
2019-03-16T04:31:42.750Z,997.77
2019-03-16T04:32:42.708Z,997.66
2019-03-16T04:33:42.703Z,997.71
2019-03-16T04:34:45.072Z,997.71
2019-03-16T04:35:42.677Z,997.78
2019-03-16T04:36:42.659Z,997.81
2019-03-16T04:37:42.664Z,997.75
2019-03-16T04:38:42.652Z,997.81
2019-03-16T04:39:42.627Z,997.82
2019-03-16T04:40:44.598Z,997.78
2019-03-16T04:41:42.616Z,997.93
2019-03-16T04:42:42.594Z,997.90
2019-03-16T04:43:42.599Z,997.93
2019-03-16T04:44:42.571Z,997.89
2019-03-16T04:45:42.660Z,997.92
2019-03-16T04:46:42.549Z,997.97
2019-03-16T04:47:42.546Z,997.98
2019-03-16T04:48:42.561Z,997.97
2019-03-16T04:49:42.522Z,997.89
2019-03-16T04:50:42.504Z,997.89
2019-03-16T04:51:42.594Z,997.90
2019-03-16T04:52:42.483Z,997.91
2019-03-16T04:53:42.479Z,997.91
2019-03-16T04:54:42.479Z,997.87
2019-03-16T04:55:42.450Z,997.90
2019-03-16T04:56:42.450Z,997.90
2019-03-16T04:57:42.451Z,997.89
2019-03-16T04:58:42.417Z,997.88
2019-03-16T04:59:42.450Z,997.92
2019-03-16T05:00:42.395Z,998.00
2019-03-16T05:01:42.386Z,998.00
2019-03-16T05:02:42.483Z,998.02
2019-03-16T05:03:42.363Z,998.04
2019-03-16T05:04:42.968Z,998.11
2019-03-16T05:05:42.362Z,998.12
2019-03-16T05:06:42.335Z,998.15
2019-03-16T05:07:42.323Z,998.17
2019-03-16T05:08:42.309Z,998.23
2019-03-16T05:09:42.294Z,998.19
2019-03-16T05:10:42.285Z,998.26
2019-03-16T05:11:42.365Z,998.28
2019-03-16T05:12:42.271Z,998.27
2019-03-16T05:13:42.252Z,998.27
2019-03-16T05:14:42.329Z,998.25
2019-03-16T05:15:42.229Z,998.23
2019-03-16T05:16:42.217Z,998.17
2019-03-16T05:17:42.228Z,998.26
2019-03-16T05:18:42.199Z,998.23
2019-03-16T05:19:42.183Z,998.27
2019-03-16T05:20:42.175Z,998.28
2019-03-16T05:21:42.162Z,998.31
2019-03-16T05:22:42.184Z,998.30
2019-03-16T05:23:42.147Z,998.28
2019-03-16T05:24:42.134Z,998.37
2019-03-16T05:25:42.118Z,998.35
2019-03-16T05:26:42.107Z,998.38
2019-03-16T05:27:42.099Z,998.36
2019-03-16T05:28:42.098Z,998.34
2019-03-16T05:29:42.077Z,998.34
2019-03-16T05:30:42.064Z,998.38
2019-03-16T05:31:42.053Z,998.35
2019-03-16T05:32:42.044Z,998.37
2019-03-16T05:33:42.069Z,998.37
2019-03-16T05:34:55.584Z,998.40
2019-03-16T05:35:43.020Z,998.35
2019-03-16T05:36:42.005Z,998.35
2019-03-16T05:37:41.992Z,998.40
2019-03-16T05:38:41.977Z,998.40
2019-03-16T05:39:41.976Z,998.44
2019-03-16T05:40:41.953Z,998.41
2019-03-16T05:41:41.946Z,998.42
2019-03-16T05:42:41.930Z,998.42
2019-03-16T05:43:41.919Z,998.49
2019-03-16T05:44:41.934Z,998.44
2019-03-16T05:45:41.895Z,998.50
2019-03-16T05:46:41.894Z,998.43
2019-03-16T05:47:41.880Z,998.36
2019-03-16T05:48:41.865Z,998.39
2019-03-16T05:49:41.851Z,998.44
2019-03-16T05:50:41.869Z,998.43
2019-03-16T05:51:41.832Z,998.49
2019-03-16T05:52:41.818Z,998.48
2019-03-16T05:53:41.819Z,998.48
2019-03-16T05:54:41.796Z,998.49
2019-03-16T05:55:41.787Z,998.45
2019-03-16T05:56:41.788Z,998.47
2019-03-16T05:57:41.844Z,998.45
2019-03-16T05:58:41.752Z,998.50
2019-03-16T05:59:41.747Z,998.45
2019-03-16T06:00:41.733Z,998.45
2019-03-16T06:01:41.731Z,998.47
2019-03-16T06:02:41.719Z,998.47
2019-03-16T06:03:41.701Z,998.44
2019-03-16T06:04:41.687Z,998.49
2019-03-16T06:05:41.707Z,998.47
2019-03-16T06:06:41.673Z,998.47
2019-03-16T06:07:41.654Z,998.50
2019-03-16T06:08:41.668Z,998.52
2019-03-16T06:09:41.629Z,998.50
2019-03-16T06:10:41.721Z,998.49
2019-03-16T06:11:41.630Z,998.50
2019-03-16T06:12:41.604Z,998.45
2019-03-16T06:13:41.588Z,998.48
2019-03-16T06:14:41.573Z,998.47
2019-03-16T06:15:41.562Z,998.51
2019-03-16T06:16:41.550Z,998.51
2019-03-16T06:17:41.559Z,998.49
2019-03-16T06:18:41.538Z,998.46
2019-03-16T06:19:41.518Z,998.50
2019-03-16T06:20:41.519Z,998.51
2019-03-16T06:21:41.496Z,998.46
2019-03-16T06:22:41.483Z,998.47
2019-03-16T06:23:41.492Z,998.47
2019-03-16T06:24:41.469Z,998.47
2019-03-16T06:25:41.451Z,998.50
2019-03-16T06:26:41.442Z,998.47
2019-03-16T06:27:41.442Z,998.51
2019-03-16T06:28:41.424Z,998.49
2019-03-16T06:29:41.417Z,998.47
2019-03-16T06:30:41.402Z,998.42
2019-03-16T06:31:41.386Z,998.47
2019-03-16T06:32:41.388Z,998.45
2019-03-16T06:33:41.374Z,998.47
2019-03-16T06:34:41.353Z,998.46
2019-03-16T06:35:41.363Z,998.50
2019-03-16T06:36:41.335Z,998.48
2019-03-16T06:37:41.323Z,998.41
2019-03-16T06:38:41.315Z,998.45
2019-03-16T06:39:41.301Z,998.44
2019-03-16T06:40:41.289Z,998.46
2019-03-16T06:41:43.426Z,998.48
2019-03-16T06:42:41.267Z,998.45
2019-03-16T06:43:41.255Z,998.44
2019-03-16T06:44:41.253Z,998.48
2019-03-16T06:45:41.234Z,998.46
2019-03-16T06:46:41.221Z,998.48
2019-03-16T06:47:41.240Z,998.42
2019-03-16T06:48:41.208Z,998.45
2019-03-16T06:49:41.201Z,998.45
2019-03-16T06:50:41.173Z,998.46
2019-03-16T06:51:41.223Z,998.45
2019-03-16T06:52:41.166Z,998.47
2019-03-16T06:53:41.155Z,998.47
2019-03-16T06:54:41.131Z,998.50
2019-03-16T06:55:41.140Z,998.41
2019-03-16T06:56:41.108Z,998.46
2019-03-16T06:57:41.118Z,998.44
2019-03-16T06:58:41.094Z,998.47
2019-03-16T06:59:41.085Z,998.48
2019-03-16T07:00:41.147Z,998.42
2019-03-16T07:01:41.136Z,998.44
2019-03-16T07:02:41.053Z,998.47
2019-03-16T07:03:41.032Z,998.46
2019-03-16T07:04:41.049Z,998.46
2019-03-16T07:05:41.009Z,998.44
2019-03-16T07:06:41.005Z,998.44
2019-03-16T07:07:40.989Z,998.44
2019-03-16T07:08:40.975Z,998.45
2019-03-16T07:09:40.974Z,998.49
2019-03-16T07:10:40.984Z,998.47
2019-03-16T07:11:40.941Z,998.51
2019-03-16T07:12:40.930Z,998.50
2019-03-16T07:13:40.927Z,998.50
2019-03-16T07:14:40.935Z,998.57
2019-03-16T07:15:40.897Z,998.50
2019-03-16T07:16:40.900Z,998.52
2019-03-16T07:17:40.878Z,998.54
2019-03-16T07:18:40.864Z,998.52
2019-03-16T07:19:40.862Z,998.55
2019-03-16T07:20:40.948Z,998.57
2019-03-16T07:21:40.831Z,998.58
2019-03-16T07:22:40.832Z,998.57
2019-03-16T07:23:40.812Z,998.60
2019-03-16T07:24:40.799Z,998.67
2019-03-16T07:25:40.796Z,998.58
2019-03-16T07:26:40.788Z,998.51
2019-03-16T07:27:40.764Z,998.60
2019-03-16T07:28:40.753Z,998.61
2019-03-16T07:29:40.748Z,998.56
2019-03-16T07:30:40.744Z,998.55
2019-03-16T07:31:40.738Z,998.47
2019-03-16T07:32:40.716Z,998.65
2019-03-16T07:33:40.697Z,998.58
2019-03-16T07:34:40.686Z,998.47
2019-03-16T07:35:40.673Z,998.60
2019-03-16T07:36:40.695Z,998.60
2019-03-16T07:37:40.775Z,998.65
2019-03-16T07:38:40.642Z,998.69
2019-03-16T07:39:40.636Z,998.52
2019-03-16T07:40:40.619Z,998.84
2019-03-16T07:41:40.609Z,998.78
2019-03-16T07:42:40.609Z,998.86
2019-03-16T07:43:40.626Z,998.86
2019-03-16T07:44:40.582Z,998.95
2019-03-16T07:45:40.572Z,999.03
2019-03-16T07:46:40.553Z,998.88
2019-03-16T07:47:40.542Z,998.94
2019-03-16T07:48:40.535Z,999.00
2019-03-16T07:49:40.533Z,999.04
2019-03-16T07:50:40.508Z,999.02
2019-03-16T07:51:40.501Z,999.03
2019-03-16T07:52:40.501Z,999.16
2019-03-16T07:53:40.496Z,999.11
2019-03-16T07:54:40.474Z,999.14
2019-03-16T07:55:42.244Z,999.22
2019-03-16T07:56:40.442Z,999.20
2019-03-16T07:57:41.086Z,999.17
2019-03-16T07:58:40.418Z,999.10
2019-03-16T07:59:40.421Z,999.23
2019-03-16T08:00:40.407Z,999.22
2019-03-16T08:01:40.393Z,999.34
2019-03-16T08:02:40.376Z,999.32
2019-03-16T08:03:40.389Z,999.34
2019-03-16T08:04:43.380Z,999.34
2019-03-16T08:05:40.347Z,999.28
2019-03-16T08:06:40.334Z,999.31
2019-03-16T08:07:40.324Z,999.35
2019-03-16T08:08:40.321Z,999.40
2019-03-16T08:09:40.313Z,999.41
2019-03-16T08:10:40.287Z,999.36
2019-03-16T08:11:40.277Z,999.38
2019-03-16T08:12:40.272Z,999.29
2019-03-16T08:13:40.350Z,999.35
2019-03-16T08:14:40.250Z,999.41
2019-03-16T08:15:40.230Z,999.55
2019-03-16T08:16:40.227Z,999.45
2019-03-16T08:17:40.209Z,999.43
2019-03-16T08:18:40.197Z,999.50
2019-03-16T08:19:40.259Z,999.48
2019-03-16T08:20:40.178Z,999.45
2019-03-16T08:21:40.166Z,999.46
2019-03-16T08:22:40.160Z,999.49
2019-03-16T08:23:40.227Z,999.50
2019-03-16T08:24:40.130Z,999.53
2019-03-16T08:25:40.145Z,999.55
2019-03-16T08:26:40.109Z,999.61
2019-03-16T08:27:53.041Z,999.54
2019-03-16T08:28:41.098Z,999.58
2019-03-16T08:29:40.078Z,999.46
2019-03-16T08:30:40.122Z,999.54
2019-03-16T08:31:40.062Z,999.55
2019-03-16T08:32:40.050Z,999.61
2019-03-16T08:33:40.032Z,999.49
2019-03-16T08:34:40.021Z,999.52
2019-03-16T08:35:40.014Z,999.57
2019-03-16T08:36:40.019Z,999.51
2019-03-16T08:37:39.996Z,999.52
2019-03-16T08:38:40.009Z,999.44
2019-03-16T08:39:39.968Z,999.45
2019-03-16T08:40:39.955Z,999.51
2019-03-16T08:41:39.946Z,999.52
2019-03-16T08:42:39.934Z,999.52
2019-03-16T08:43:39.959Z,999.50
2019-03-16T08:44:39.923Z,999.55
2019-03-16T08:45:39.910Z,999.52
2019-03-16T08:46:39.890Z,999.56
2019-03-16T08:47:39.880Z,999.52
2019-03-16T08:48:39.866Z,999.51
2019-03-16T08:49:39.868Z,999.55
2019-03-16T08:50:39.859Z,999.55
2019-03-16T08:51:39.843Z,999.54
2019-03-16T08:52:39.885Z,999.60
2019-03-16T08:53:39.818Z,999.61
2019-03-16T08:54:39.856Z,999.53
2019-03-16T08:55:39.792Z,999.56
2019-03-16T08:56:39.926Z,999.62
2019-03-16T08:57:39.810Z,999.55
2019-03-16T08:58:39.755Z,999.54
2019-03-16T08:59:39.749Z,999.52
2019-03-16T09:00:39.747Z,999.49
2019-03-16T09:01:39.726Z,999.50
2019-03-16T09:02:39.711Z,999.51
2019-03-16T09:03:43.917Z,999.52
2019-03-16T09:04:39.691Z,999.52
2019-03-16T09:05:39.696Z,999.49
2019-03-16T09:06:39.672Z,999.52
2019-03-16T09:07:39.657Z,999.55
2019-03-16T09:08:39.648Z,999.60
2019-03-16T09:09:39.638Z,999.54
2019-03-16T09:10:39.638Z,999.54
2019-03-16T09:11:39.636Z,999.54
2019-03-16T09:12:39.626Z,999.48
2019-03-16T09:13:39.589Z,999.52
2019-03-16T09:14:39.621Z,999.51
2019-03-16T09:15:39.575Z,999.49
2019-03-16T09:16:39.558Z,999.47
2019-03-16T09:17:39.656Z,999.47
2019-03-16T09:18:39.540Z,999.44
2019-03-16T09:19:39.554Z,999.41
2019-03-16T09:20:39.519Z,999.42
2019-03-16T09:21:39.506Z,999.41
2019-03-16T09:22:39.496Z,999.42
2019-03-16T09:23:39.590Z,999.37
2019-03-16T09:24:39.475Z,999.34
2019-03-16T09:25:39.462Z,999.34
2019-03-16T09:26:39.495Z,999.37
2019-03-16T09:27:39.444Z,999.38
2019-03-16T09:39:48.050Z,999.32
2019-03-16T09:40:48.031Z,999.31
2019-03-16T09:41:48.030Z,999.28
2019-03-16T09:42:48.010Z,999.26
2019-03-16T09:43:47.999Z,999.25
2019-03-16T09:44:47.998Z,999.19
2019-03-16T09:45:48.005Z,999.15
2019-03-16T09:46:47.970Z,999.15
2019-03-16T09:47:47.952Z,999.13
2019-03-16T09:48:47.946Z,999.19
2019-03-16T09:49:47.938Z,999.15
2019-03-16T09:50:47.938Z,999.19
2019-03-16T09:51:47.915Z,999.18
2019-03-16T09:52:47.902Z,999.15
2019-03-16T09:53:47.887Z,999.16
2019-03-16T09:54:47.879Z,999.16
2019-03-16T09:55:47.934Z,999.13
2019-03-16T09:57:00.217Z,999.16
2019-03-16T09:57:48.855Z,999.16
2019-03-16T09:58:47.832Z,999.18
2019-03-16T09:59:47.829Z,999.15
2019-03-16T10:00:47.826Z,999.10
2019-03-16T10:01:47.798Z,999.10
2019-03-16T10:02:47.799Z,999.14
2019-03-16T10:03:47.776Z,999.16
2019-03-16T10:04:47.768Z,999.12
2019-03-16T10:05:47.771Z,999.06
2019-03-16T10:06:47.745Z,999.08
2019-03-16T10:07:47.747Z,999.08
2019-03-16T10:08:47.722Z,999.04
2019-03-16T10:09:47.729Z,999.07
2019-03-16T10:10:47.704Z,998.97
2019-03-16T10:11:47.689Z,998.99
2019-03-16T10:12:47.675Z,998.97
2019-03-16T10:13:47.667Z,998.97
2019-03-16T10:14:47.683Z,998.99
2019-03-16T10:15:47.643Z,998.96
2019-03-16T10:16:47.631Z,998.88
2019-03-16T10:17:47.627Z,998.86
2019-03-16T10:18:47.610Z,998.81
2019-03-16T10:19:47.605Z,998.79
2019-03-16T10:20:47.621Z,998.78
2019-03-16T10:21:47.585Z,998.70
2019-03-16T10:22:47.566Z,998.68
2019-03-16T10:23:47.556Z,998.64
2019-03-16T10:24:47.546Z,998.65
2019-03-16T10:25:47.543Z,998.56
2019-03-16T10:26:47.632Z,998.59
2019-03-16T10:27:47.511Z,998.61
2019-03-16T10:28:47.502Z,998.54
2019-03-16T10:29:47.490Z,998.51
2019-03-16T10:30:47.484Z,998.50
2019-03-16T10:31:47.469Z,998.48
2019-03-16T10:32:47.497Z,998.45
2019-03-16T10:33:47.445Z,998.43
2019-03-16T10:34:47.436Z,998.38
2019-03-16T10:35:47.424Z,998.35
2019-03-16T10:36:47.425Z,998.29
2019-03-16T10:37:47.401Z,998.27
